createdAt,value
2023-04-06T00:03:19.764Z,12.35
2023-04-06T00:08:22.423Z,11.95
2023-04-06T00:13:24.537Z,12.13
2023-04-06T00:18:27.523Z,12.05
2023-04-06T00:23:29.829Z,12.25
2023-04-06T00:28:31.915Z,12.63
2023-04-06T00:33:33.997Z,12.50
2023-04-06T00:38:36.154Z,13.00
2023-04-06T00:43:38.304Z,13.30
2023-04-06T00:48:41.726Z,13.48
2023-04-06T00:53:43.782Z,14.45
2023-04-06T00:58:48.113Z,12.45
2023-04-06T01:03:51.243Z,13.07
2023-04-06T01:08:55.350Z,13.00
2023-04-06T01:14:00.748Z,12.60
2023-04-06T01:19:11.471Z,14.18
2023-04-06T01:24:17.000Z,13.43
2023-04-06T01:29:48.271Z,13.55
2023-04-06T01:34:57.920Z,13.32
2023-04-06T01:40:01.672Z,14.07
2023-04-06T01:45:16.370Z,14.35
2023-04-06T01:50:20.751Z,15.30
2023-04-06T01:55:22.916Z,14.32
2023-04-06T02:00:43.345Z,14.30
2023-04-06T02:05:46.538Z,15.43
2023-04-06T02:10:58.405Z,14.93
2023-04-06T02:16:09.377Z,15.05
2023-04-06T02:21:11.950Z,14.15
2023-04-06T02:26:14.629Z,14.05
2023-04-06T02:31:17.282Z,15.05
2023-04-06T02:36:20.738Z,15.65
2023-04-06T02:41:22.808Z,14.40
2023-04-06T02:46:26.127Z,15.00
2023-04-06T02:51:28.338Z,15.30
2023-04-06T02:56:38.464Z,15.80
2023-04-06T03:01:41.098Z,15.57
2023-04-06T03:06:44.476Z,15.30
2023-04-06T03:11:58.604Z,15.48
2023-04-06T03:17:01.422Z,15.57
2023-04-06T03:22:03.599Z,15.32
2023-04-06T03:27:05.808Z,14.57
2023-04-06T03:32:09.220Z,14.20
2023-04-06T03:37:25.621Z,14.45
2023-04-06T03:42:33.449Z,15.32
2023-04-06T03:47:42.151Z,15.35
2023-04-06T03:52:44.748Z,15.23
2023-04-06T03:57:47.488Z,15.13
2023-04-06T04:02:49.656Z,15.20
2023-04-06T04:07:54.875Z,15.32
2023-04-06T04:13:01.603Z,14.98
2023-04-06T04:18:04.649Z,15.23
2023-04-06T04:23:07.812Z,15.70
2023-04-06T04:28:10.857Z,14.82
2023-04-06T04:33:15.310Z,14.82
2023-04-06T04:38:18.964Z,14.60
2023-04-06T04:43:26.934Z,15.43
2023-04-06T04:48:29.389Z,15.57
2023-04-06T04:53:35.900Z,15.60
2023-04-06T04:58:51.388Z,15.07
2023-04-06T05:03:56.307Z,14.68
2023-04-06T05:08:58.449Z,14.10
2023-04-06T05:14:01.880Z,14.00
2023-04-06T05:19:04.945Z,14.15
2023-04-06T05:24:15.571Z,15.63
2023-04-06T05:29:21.434Z,14.88
2023-04-06T05:34:23.647Z,15.30
2023-04-06T05:39:27.241Z,15.02
2023-04-06T05:44:29.873Z,15.07
2023-04-06T05:49:43.168Z,15.48
2023-04-06T05:54:51.390Z,15.98
2023-04-06T05:59:53.620Z,16.00
2023-04-06T06:04:57.743Z,16.10
2023-04-06T06:10:01.760Z,15.48
2023-04-06T06:15:08.636Z,16.52
2023-04-06T06:20:14.995Z,16.60
2023-04-06T06:25:19.288Z,17.38
2023-04-06T06:30:23.813Z,16.52
2023-04-06T06:35:27.130Z,16.30
2023-04-06T06:40:29.489Z,15.63
2023-04-06T06:45:32.341Z,16.08
2023-04-06T06:50:34.636Z,15.65
2023-04-06T06:55:36.695Z,16.77
2023-04-06T07:00:38.981Z,16.00
2023-04-06T07:05:50.989Z,16.85
2023-04-06T07:10:57.052Z,16.85
2023-04-06T07:15:59.259Z,17.25
2023-04-06T07:21:01.419Z,17.90
2023-04-06T07:26:03.576Z,17.60
2023-04-06T07:31:06.305Z,17.70
2023-04-06T07:36:08.654Z,17.30
2023-04-06T07:41:10.884Z,18.42
2023-04-06T07:46:13.291Z,18.88
2023-04-06T07:51:17.394Z,17.83
2023-04-06T07:56:21.880Z,19.45
2023-04-06T08:01:24.044Z,18.92
2023-04-06T08:06:26.188Z,19.00
2023-04-06T08:11:28.469Z,18.60
2023-04-06T08:16:30.688Z,19.40
2023-04-06T08:21:34.048Z,18.02
2023-04-06T08:26:36.218Z,18.88
2023-04-06T08:31:38.453Z,19.20
2023-04-06T08:36:40.932Z,19.38
2023-04-06T08:41:44.393Z,19.15
2023-04-06T08:46:46.568Z,19.95
2023-04-06T08:51:50.207Z,18.63
2023-04-06T08:56:54.067Z,17.30
2023-04-06T09:01:56.748Z,16.77
2023-04-06T09:07:00.190Z,15.77
2023-04-06T09:12:06.738Z,15.10
2023-04-06T09:17:09.020Z,13.25
2023-04-06T09:22:11.187Z,14.45
2023-04-06T09:27:14.169Z,13.73
2023-04-06T09:32:17.949Z,13.20
2023-04-06T09:37:20.506Z,12.25
2023-04-06T09:42:29.474Z,12.05
2023-04-06T09:47:32.123Z,10.43
2023-04-06T09:52:57.798Z,9.77
2023-04-06T09:58:07.391Z,10.18
2023-04-06T10:03:26.598Z,9.82
2023-04-06T10:08:32.505Z,9.27
2023-04-06T10:13:35.508Z,9.25
2023-04-06T10:18:40.469Z,10.30
2023-04-06T10:23:47.729Z,9.32
2023-04-06T10:28:51.350Z,12.05
2023-04-06T10:33:58.057Z,10.70
2023-04-06T10:39:03.080Z,10.65
2023-04-06T10:44:05.643Z,9.13
2023-04-06T10:49:13.015Z,9.73
2023-04-06T10:54:17.009Z,9.93
2023-04-06T10:59:23.749Z,8.93
2023-04-06T11:04:26.323Z,9.02
2023-04-06T11:09:30.255Z,9.35
2023-04-06T11:14:32.317Z,9.50
2023-04-06T11:19:35.455Z,8.63
2023-04-06T11:24:37.855Z,8.70
2023-04-06T11:29:41.760Z,9.40
2023-04-06T11:34:48.769Z,9.07
2023-04-06T11:39:52.900Z,9.30
2023-04-06T11:44:56.974Z,10.10
2023-04-06T11:50:07.864Z,10.43
2023-04-06T11:55:15.530Z,11.15
2023-04-06T12:00:17.954Z,10.93
2023-04-06T12:05:20.090Z,10.43
2023-04-06T12:10:22.120Z,10.57
2023-04-06T12:15:24.282Z,11.20
2023-04-06T12:20:27.476Z,11.15
2023-04-06T12:25:30.573Z,10.68
2023-04-06T12:30:33.409Z,11.65
2023-04-06T12:35:36.046Z,11.02
2023-04-06T12:40:40.844Z,12.13
2023-04-06T12:45:42.982Z,12.38
2023-04-06T12:50:45.218Z,11.10
2023-04-06T12:55:47.336Z,11.68
2023-04-06T13:00:51.159Z,11.18
2023-04-06T13:05:53.572Z,12.43
2023-04-06T13:10:55.837Z,12.30
2023-04-06T13:16:07.129Z,12.07
2023-04-06T13:21:09.241Z,13.43
2023-04-06T13:26:11.429Z,11.55
2023-04-06T13:31:13.737Z,14.65
2023-04-06T13:36:18.134Z,12.88
2023-04-06T13:41:25.261Z,10.32
2023-04-06T13:46:28.862Z,11.57
2023-04-06T13:51:31.758Z,11.60
2023-04-06T13:56:33.826Z,11.32
2023-04-06T14:01:35.917Z,13.50
2023-04-06T14:06:38.293Z,12.10
2023-04-06T14:11:40.401Z,12.15
2023-04-06T14:16:45.096Z,12.02
2023-04-06T14:21:48.504Z,12.80
2023-04-06T14:26:50.712Z,13.15
2023-04-06T14:31:55.429Z,14.00
2023-04-06T14:36:57.706Z,13.27
2023-04-06T14:41:59.902Z,12.10
2023-04-06T14:47:02.283Z,13.07
2023-04-06T14:52:05.382Z,13.35
2023-04-06T14:57:07.428Z,13.48
2023-04-06T15:02:09.615Z,13.93
2023-04-06T15:07:12.027Z,14.48
2023-04-06T15:12:14.240Z,13.07
2023-04-06T15:17:16.327Z,13.73
2023-04-06T15:22:18.656Z,14.20
2023-04-06T15:27:21.691Z,13.57
2023-04-06T15:32:23.914Z,14.10
2023-04-06T15:37:26.604Z,13.35
2023-04-06T15:42:28.830Z,14.07
2023-04-06T15:47:30.961Z,13.27
2023-04-06T15:52:33.310Z,15.02
2023-04-06T15:57:35.794Z,13.93
2023-04-06T16:02:38.238Z,12.35
2023-04-06T16:07:40.720Z,13.13
2023-04-06T16:12:43.800Z,12.75
2023-04-06T16:17:46.398Z,15.02
2023-04-06T16:22:49.721Z,14.88
2023-04-06T16:27:51.953Z,15.02
2023-04-06T16:32:54.473Z,12.88
2023-04-06T16:37:56.797Z,13.70
2023-04-06T16:42:59.405Z,13.77
2023-04-06T16:48:01.623Z,14.73
2023-04-06T16:53:03.902Z,14.68
2023-04-06T16:58:06.732Z,16.05
2023-04-06T17:03:08.897Z,15.50
2023-04-06T17:08:11.237Z,14.75
2023-04-06T17:13:13.369Z,14.77
2023-04-06T17:18:15.810Z,14.40
2023-04-06T17:23:18.027Z,15.20
2023-04-06T17:28:20.344Z,15.18
2023-04-06T17:33:23.700Z,15.73
2023-04-06T17:38:26.089Z,16.48
2023-04-06T17:43:28.126Z,17.35
2023-04-06T17:48:30.550Z,18.00
2023-04-06T17:53:40.062Z,18.35
2023-04-06T17:58:42.349Z,20.00
2023-04-06T18:03:44.396Z,20.08
2023-04-06T18:08:46.443Z,20.45
2023-04-06T18:13:48.672Z,20.92
2023-04-06T18:18:51.127Z,21.50
2023-04-06T18:23:54.591Z,23.85
2023-04-06T18:28:57.065Z,22.73
2023-04-06T18:33:59.560Z,23.77
2023-04-06T18:39:01.795Z,25.52
2023-04-06T18:44:03.997Z,24.20
2023-04-06T18:49:06.246Z,24.17
2023-04-06T18:54:08.896Z,25.05
2023-04-06T18:59:11.983Z,25.88
2023-04-06T19:04:14.405Z,26.23
2023-04-06T19:09:16.918Z,25.13
2023-04-06T19:14:19.115Z,26.52
2023-04-06T19:19:21.476Z,23.70
2023-04-06T19:24:23.526Z,21.02
2023-04-06T19:29:26.342Z,23.95
2023-04-06T19:34:28.635Z,26.40
2023-04-06T19:39:31.203Z,28.45
2023-04-06T19:44:33.336Z,26.08
2023-04-06T19:49:35.441Z,23.42
2023-04-06T19:54:39.577Z,19.38
2023-04-06T19:59:42.038Z,18.30
2023-04-06T20:04:44.265Z,18.92
2023-04-06T20:09:46.895Z,19.52
2023-04-06T20:14:50.931Z,19.80
2023-04-06T20:19:53.915Z,17.45
2023-04-06T20:24:55.981Z,17.27
2023-04-06T20:29:58.369Z,18.85
2023-04-06T20:35:00.854Z,18.70
2023-04-06T20:40:04.374Z,20.55
2023-04-06T20:45:06.973Z,21.10
2023-04-06T20:50:09.239Z,19.30
2023-04-06T20:55:11.326Z,19.83
2023-04-06T21:00:13.592Z,19.98
2023-04-06T21:05:15.729Z,19.92
2023-04-06T21:10:17.863Z,20.25
2023-04-06T21:15:19.915Z,21.35
2023-04-06T21:20:22.004Z,19.13
2023-04-06T21:25:24.002Z,19.58
2023-04-06T21:30:26.080Z,20.00
2023-04-06T21:35:28.112Z,20.13
2023-04-06T21:40:30.244Z,19.55
2023-04-06T21:45:32.950Z,18.55
2023-04-06T21:50:39.415Z,20.60
2023-04-06T21:55:45.620Z,19.25
2023-04-06T22:00:47.703Z,17.77
2023-04-06T22:05:49.777Z,16.75
2023-04-06T22:10:51.865Z,15.93
2023-04-06T22:15:54.817Z,15.52
2023-04-06T22:20:57.020Z,14.05
2023-04-06T22:25:59.243Z,13.85
2023-04-06T22:31:01.531Z,13.27
2023-04-06T22:36:03.805Z,12.30
2023-04-06T22:41:08.045Z,12.73
2023-04-06T22:46:10.638Z,13.85
2023-04-06T22:51:12.725Z,12.93
2023-04-06T22:56:14.862Z,13.55
2023-04-06T23:01:16.958Z,13.75
2023-04-06T23:06:19.177Z,13.05
2023-04-06T23:11:22.234Z,13.18
2023-04-06T23:16:24.550Z,13.25
2023-04-06T23:21:26.691Z,13.88
2023-04-06T23:26:28.844Z,13.25
2023-04-06T23:31:31.029Z,12.35
2023-04-06T23:36:33.653Z,12.65
2023-04-06T23:41:35.966Z,13.77
2023-04-06T23:46:38.052Z,13.15
2023-04-06T23:51:40.339Z,14.98
2023-04-06T23:56:46.270Z,14.15
